sensor_id;sensor_type;location;lat;lon;timestamp;temperature;humidity
33699;DHT22;20032;52.436;13.312;2023-12-20T00:01:03;7.00;99.90
33699;DHT22;20032;52.436;13.312;2023-12-20T00:03:28;7.00;99.90
33699;DHT22;20032;52.436;13.312;2023-12-20T00:05:53;7.00;99.90
33699;DHT22;20032;52.436;13.312;2023-12-20T00:08:19;7.00;99.90
33699;DHT22;20032;52.436;13.312;2023-12-20T00:10:44;7.00;99.90
33699;DHT22;20032;52.436;13.312;2023-12-20T00:13:10;7.00;99.90
33699;DHT22;20032;52.436;13.312;2023-12-20T00:15:36;7.00;99.90
33699;DHT22;20032;52.436;13.312;2023-12-20T00:18:01;6.90;99.90
33699;DHT22;20032;52.436;13.312;2023-12-20T00:20:28;6.90;99.90
33699;DHT22;20032;52.436;13.312;2023-12-20T00:22:56;6.90;99.90
33699;DHT22;20032;52.436;13.312;2023-12-20T00:25:23;6.90;99.90
33699;DHT22;20032;52.436;13.312;2023-12-20T00:27:48;6.90;99.90
33699;DHT22;20032;52.436;13.312;2023-12-20T00:30:14;6.90;99.90
33699;DHT22;20032;52.436;13.312;2023-12-20T00:32:39;6.90;99.90
33699;DHT22;20032;52.436;13.312;2023-12-20T00:35:06;7.00;99.90
33699;DHT22;20032;52.436;13.312;2023-12-20T00:37:32;7.00;99.90
33699;DHT22;20032;52.436;13.312;2023-12-20T00:39:57;7.00;99.90
33699;DHT22;20032;52.436;13.312;2023-12-20T00:42:23;7.00;99.90
33699;DHT22;20032;52.436;13.312;2023-12-20T00:44:48;7.00;99.90
33699;DHT22;20032;52.436;13.312;2023-12-20T00:47:16;7.00;99.90
33699;DHT22;20032;52.436;13.312;2023-12-20T00:49:41;6.90;99.90
33699;DHT22;20032;52.436;13.312;2023-12-20T00:52:07;7.00;99.90
33699;DHT22;20032;52.436;13.312;2023-12-20T00:54:32;6.90;99.90
33699;DHT22;20032;52.436;13.312;2023-12-20T00:56:58;7.00;99.90
33699;DHT22;20032;52.436;13.312;2023-12-20T00:59:23;7.00;99.90
33699;DHT22;20032;52.436;13.312;2023-12-20T01:01:48;6.90;99.90
33699;DHT22;20032;52.436;13.312;2023-12-20T01:04:14;6.90;99.90
33699;DHT22;20032;52.436;13.312;2023-12-20T01:06:39;6.90;99.90
33699;DHT22;20032;52.436;13.312;2023-12-20T01:09:05;6.90;99.90
33699;DHT22;20032;52.436;13.312;2023-12-20T01:11:30;7.00;99.90
33699;DHT22;20032;52.436;13.312;2023-12-20T01:13:56;7.00;99.90
33699;DHT22;20032;52.436;13.312;2023-12-20T01:16:21;7.00;99.90
33699;DHT22;20032;52.436;13.312;2023-12-20T01:18:47;7.00;99.90
33699;DHT22;20032;52.436;13.312;2023-12-20T01:21:12;7.00;99.90
33699;DHT22;20032;52.436;13.312;2023-12-20T01:23:38;7.00;99.90
33699;DHT22;20032;52.436;13.312;2023-12-20T01:26:03;7.00;99.90
33699;DHT22;20032;52.436;13.312;2023-12-20T01:28:30;7.00;99.90
33699;DHT22;20032;52.436;13.312;2023-12-20T01:30:57;7.00;99.90
33699;DHT22;20032;52.436;13.312;2023-12-20T01:33:22;7.00;99.90
33699;DHT22;20032;52.436;13.312;2023-12-20T01:35:47;7.00;99.90
33699;DHT22;20032;52.436;13.312;2023-12-20T01:38:13;7.00;99.90
33699;DHT22;20032;52.436;13.312;2023-12-20T01:40:38;7.00;99.90
33699;DHT22;20032;52.436;13.312;2023-12-20T01:43:07;7.00;99.90
33699;DHT22;20032;52.436;13.312;2023-12-20T01:45:34;7.00;99.90
33699;DHT22;20032;52.436;13.312;2023-12-20T01:47:59;7.00;99.90
33699;DHT22;20032;52.436;13.312;2023-12-20T01:50:25;7.00;99.90
33699;DHT22;20032;52.436;13.312;2023-12-20T01:52:52;7.00;99.90
33699;DHT22;20032;52.436;13.312;2023-12-20T01:55:21;7.00;99.90
33699;DHT22;20032;52.436;13.312;2023-12-20T01:57:47;7.00;99.90
33699;DHT22;20032;52.436;13.312;2023-12-20T02:00:13;7.00;99.90
33699;DHT22;20032;52.436;13.312;2023-12-20T02:02:40;7.00;99.90
33699;DHT22;20032;52.436;13.312;2023-12-20T02:05:06;7.10;99.90
33699;DHT22;20032;52.436;13.312;2023-12-20T02:07:31;7.00;99.90
33699;DHT22;20032;52.436;13.312;2023-12-20T02:09:57;7.00;99.90
33699;DHT22;20032;52.436;13.312;2023-12-20T02:12:23;7.00;99.90
33699;DHT22;20032;52.436;13.312;2023-12-20T02:14:48;7.00;99.90
33699;DHT22;20032;52.436;13.312;2023-12-20T02:17:15;7.00;99.90
33699;DHT22;20032;52.436;13.312;2023-12-20T02:19:40;7.00;99.90
33699;DHT22;20032;52.436;13.312;2023-12-20T02:22:11;7.00;99.90
33699;DHT22;20032;52.436;13.312;2023-12-20T02:24:37;7.00;99.90
33699;DHT22;20032;52.436;13.312;2023-12-20T02:27:03;6.90;99.90
33699;DHT22;20032;52.436;13.312;2023-12-20T02:29:30;7.00;99.90
33699;DHT22;20032;52.436;13.312;2023-12-20T02:31:56;7.10;99.90
33699;DHT22;20032;52.436;13.312;2023-12-20T02:34:22;7.10;99.90
33699;DHT22;20032;52.436;13.312;2023-12-20T02:36:48;7.10;99.90
33699;DHT22;20032;52.436;13.312;2023-12-20T02:39:14;7.10;99.90
33699;DHT22;20032;52.436;13.312;2023-12-20T02:41:39;7.10;99.90
33699;DHT22;20032;52.436;13.312;2023-12-20T02:44:05;7.10;99.90
33699;DHT22;20032;52.436;13.312;2023-12-20T02:46:30;7.10;99.90
33699;DHT22;20032;52.436;13.312;2023-12-20T02:48:56;7.20;99.90
33699;DHT22;20032;52.436;13.312;2023-12-20T02:51:21;7.10;99.90
33699;DHT22;20032;52.436;13.312;2023-12-20T02:53:47;7.20;99.90
33699;DHT22;20032;52.436;13.312;2023-12-20T02:56:12;7.20;99.90
33699;DHT22;20032;52.436;13.312;2023-12-20T02:58:39;7.20;99.90
33699;DHT22;20032;52.436;13.312;2023-12-20T03:01:05;7.20;99.90
33699;DHT22;20032;52.436;13.312;2023-12-20T03:03:31;7.30;99.90
33699;DHT22;20032;52.436;13.312;2023-12-20T03:05:57;7.20;99.90
33699;DHT22;20032;52.436;13.312;2023-12-20T03:08:22;7.20;99.90
33699;DHT22;20032;52.436;13.312;2023-12-20T03:10:48;7.20;99.90
33699;DHT22;20032;52.436;13.312;2023-12-20T03:13:13;7.20;99.90
33699;DHT22;20032;52.436;13.312;2023-12-20T03:15:39;7.20;99.90
33699;DHT22;20032;52.436;13.312;2023-12-20T03:18:05;7.20;99.90
33699;DHT22;20032;52.436;13.312;2023-12-20T03:20:30;7.10;99.90
33699;DHT22;20032;52.436;13.312;2023-12-20T03:22:59;7.10;99.90
33699;DHT22;20032;52.436;13.312;2023-12-20T03:25:25;7.10;99.90
33699;DHT22;20032;52.436;13.312;2023-12-20T03:27:50;7.10;99.90
33699;DHT22;20032;52.436;13.312;2023-12-20T03:30:16;7.10;99.90
33699;DHT22;20032;52.436;13.312;2023-12-20T03:32:41;7.10;99.90
33699;DHT22;20032;52.436;13.312;2023-12-20T03:35:07;7.10;99.90
33699;DHT22;20032;52.436;13.312;2023-12-20T03:37:32;7.10;99.90
33699;DHT22;20032;52.436;13.312;2023-12-20T03:39:58;7.10;99.90
33699;DHT22;20032;52.436;13.312;2023-12-20T03:42:23;7.00;99.90
33699;DHT22;20032;52.436;13.312;2023-12-20T03:44:48;7.00;99.90
33699;DHT22;20032;52.436;13.312;2023-12-20T03:47:14;7.00;99.90
33699;DHT22;20032;52.436;13.312;2023-12-20T03:49:39;7.10;99.90
33699;DHT22;20032;52.436;13.312;2023-12-20T03:52:05;7.10;99.90
33699;DHT22;20032;52.436;13.312;2023-12-20T03:54:30;7.10;99.90
33699;DHT22;20032;52.436;13.312;2023-12-20T03:56:56;7.10;99.90
33699;DHT22;20032;52.436;13.312;2023-12-20T03:59:22;7.00;99.90
33699;DHT22;20032;52.436;13.312;2023-12-20T04:01:47;7.10;99.90
33699;DHT22;20032;52.436;13.312;2023-12-20T04:04:13;7.10;99.90
33699;DHT22;20032;52.436;13.312;2023-12-20T04:06:39;7.00;99.90
33699;DHT22;20032;52.436;13.312;2023-12-20T04:09:05;7.10;99.90
33699;DHT22;20032;52.436;13.312;2023-12-20T04:11:30;7.00;99.90
33699;DHT22;20032;52.436;13.312;2023-12-20T04:13:56;7.00;99.90
33699;DHT22;20032;52.436;13.312;2023-12-20T04:16:21;7.00;99.90
33699;DHT22;20032;52.436;13.312;2023-12-20T04:18:46;7.00;99.90
33699;DHT22;20032;52.436;13.312;2023-12-20T04:21:12;7.00;99.90
33699;DHT22;20032;52.436;13.312;2023-12-20T04:23:37;7.00;99.90
33699;DHT22;20032;52.436;13.312;2023-12-20T04:26:03;6.90;99.90
33699;DHT22;20032;52.436;13.312;2023-12-20T04:28:28;6.90;99.90
33699;DHT22;20032;52.436;13.312;2023-12-20T04:30:55;6.90;99.90
33699;DHT22;20032;52.436;13.312;2023-12-20T04:33:21;6.80;99.90
33699;DHT22;20032;52.436;13.312;2023-12-20T04:35:47;6.70;99.90
33699;DHT22;20032;52.436;13.312;2023-12-20T04:38:12;6.70;99.90
33699;DHT22;20032;52.436;13.312;2023-12-20T04:40:38;6.70;99.90
33699;DHT22;20032;52.436;13.312;2023-12-20T04:43:05;6.60;99.90
33699;DHT22;20032;52.436;13.312;2023-12-20T04:45:31;6.60;99.90
33699;DHT22;20032;52.436;13.312;2023-12-20T04:47:56;6.60;99.90
33699;DHT22;20032;52.436;13.312;2023-12-20T04:50:22;6.50;99.90
33699;DHT22;20032;52.436;13.312;2023-12-20T04:52:47;6.50;99.90
33699;DHT22;20032;52.436;13.312;2023-12-20T04:55:13;6.40;99.90
33699;DHT22;20032;52.436;13.312;2023-12-20T04:57:39;6.40;99.90
33699;DHT22;20032;52.436;13.312;2023-12-20T05:00:05;6.30;99.90
33699;DHT22;20032;52.436;13.312;2023-12-20T05:02:30;6.30;99.90
33699;DHT22;20032;52.436;13.312;2023-12-20T05:04:56;6.30;99.90
33699;DHT22;20032;52.436;13.312;2023-12-20T05:07:21;6.30;99.90
33699;DHT22;20032;52.436;13.312;2023-12-20T05:09:47;6.20;99.90
33699;DHT22;20032;52.436;13.312;2023-12-20T05:12:12;6.20;99.90
33699;DHT22;20032;52.436;13.312;2023-12-20T05:14:38;6.30;99.90
33699;DHT22;20032;52.436;13.312;2023-12-20T05:17:04;6.30;99.90
33699;DHT22;20032;52.436;13.312;2023-12-20T05:19:29;6.20;99.90
33699;DHT22;20032;52.436;13.312;2023-12-20T05:21:54;6.20;99.90
33699;DHT22;20032;52.436;13.312;2023-12-20T05:24:20;6.20;99.90
33699;DHT22;20032;52.436;13.312;2023-12-20T05:26:45;6.20;99.90
33699;DHT22;20032;52.436;13.312;2023-12-20T05:29:11;6.20;99.90
33699;DHT22;20032;52.436;13.312;2023-12-20T05:31:37;6.10;99.90
33699;DHT22;20032;52.436;13.312;2023-12-20T05:34:02;6.00;99.90
33699;DHT22;20032;52.436;13.312;2023-12-20T05:36:27;6.00;99.90
33699;DHT22;20032;52.436;13.312;2023-12-20T05:38:53;6.00;99.90
33699;DHT22;20032;52.436;13.312;2023-12-20T05:41:19;6.00;99.90
33699;DHT22;20032;52.436;13.312;2023-12-20T05:43:44;5.90;99.90
33699;DHT22;20032;52.436;13.312;2023-12-20T05:46:10;5.80;99.90
33699;DHT22;20032;52.436;13.312;2023-12-20T05:48:37;5.80;99.90
33699;DHT22;20032;52.436;13.312;2023-12-20T05:51:03;5.80;99.90
33699;DHT22;20032;52.436;13.312;2023-12-20T05:53:28;5.80;99.90
33699;DHT22;20032;52.436;13.312;2023-12-20T05:55:54;5.80;99.90
33699;DHT22;20032;52.436;13.312;2023-12-20T05:58:19;5.80;99.90
33699;DHT22;20032;52.436;13.312;2023-12-20T06:00:45;5.80;99.90
33699;DHT22;20032;52.436;13.312;2023-12-20T06:03:10;5.80;99.90
33699;DHT22;20032;52.436;13.312;2023-12-20T06:05:35;5.70;99.90
33699;DHT22;20032;52.436;13.312;2023-12-20T06:08:01;5.70;99.90
33699;DHT22;20032;52.436;13.312;2023-12-20T06:10:28;5.70;99.90
33699;DHT22;20032;52.436;13.312;2023-12-20T06:12:54;5.70;99.90
33699;DHT22;20032;52.436;13.312;2023-12-20T06:15:19;5.70;99.90
33699;DHT22;20032;52.436;13.312;2023-12-20T06:17:45;5.70;99.90
33699;DHT22;20032;52.436;13.312;2023-12-20T06:20:12;5.70;99.90
33699;DHT22;20032;52.436;13.312;2023-12-20T06:22:38;5.60;99.90
33699;DHT22;20032;52.436;13.312;2023-12-20T06:25:04;5.70;99.90
33699;DHT22;20032;52.436;13.312;2023-12-20T06:27:30;5.60;99.90
33699;DHT22;20032;52.436;13.312;2023-12-20T06:29:57;5.60;99.90
33699;DHT22;20032;52.436;13.312;2023-12-20T06:32:24;5.60;99.90
33699;DHT22;20032;52.436;13.312;2023-12-20T06:34:50;5.50;99.90
33699;DHT22;20032;52.436;13.312;2023-12-20T06:37:16;5.50;99.90
33699;DHT22;20032;52.436;13.312;2023-12-20T06:39:41;5.50;99.90
33699;DHT22;20032;52.436;13.312;2023-12-20T06:42:07;5.50;99.90
33699;DHT22;20032;52.436;13.312;2023-12-20T06:44:32;5.60;99.90
33699;DHT22;20032;52.436;13.312;2023-12-20T06:46:58;5.60;99.90
33699;DHT22;20032;52.436;13.312;2023-12-20T06:49:23;5.60;99.90
33699;DHT22;20032;52.436;13.312;2023-12-20T06:51:49;5.60;99.90
33699;DHT22;20032;52.436;13.312;2023-12-20T06:54:14;5.60;99.90
33699;DHT22;20032;52.436;13.312;2023-12-20T06:56:40;5.60;99.90
33699;DHT22;20032;52.436;13.312;2023-12-20T06:59:06;5.60;99.90
33699;DHT22;20032;52.436;13.312;2023-12-20T07:01:35;5.50;99.90
33699;DHT22;20032;52.436;13.312;2023-12-20T07:04:01;5.50;99.90
33699;DHT22;20032;52.436;13.312;2023-12-20T07:06:26;5.50;99.90
33699;DHT22;20032;52.436;13.312;2023-12-20T07:08:52;5.50;99.90
33699;DHT22;20032;52.436;13.312;2023-12-20T07:11:17;5.60;99.90
33699;DHT22;20032;52.436;13.312;2023-12-20T07:13:43;5.50;99.90
33699;DHT22;20032;52.436;13.312;2023-12-20T07:16:09;5.60;99.90
33699;DHT22;20032;52.436;13.312;2023-12-20T07:18:36;5.60;99.90
33699;DHT22;20032;52.436;13.312;2023-12-20T07:21:02;5.60;99.90
33699;DHT22;20032;52.436;13.312;2023-12-20T07:23:30;5.60;99.90
33699;DHT22;20032;52.436;13.312;2023-12-20T07:25:56;5.50;99.90
33699;DHT22;20032;52.436;13.312;2023-12-20T07:28:21;5.60;99.90
33699;DHT22;20032;52.436;13.312;2023-12-20T07:30:47;5.60;99.90
33699;DHT22;20032;52.436;13.312;2023-12-20T07:33:13;5.50;99.90
33699;DHT22;20032;52.436;13.312;2023-12-20T07:35:39;5.60;99.90
33699;DHT22;20032;52.436;13.312;2023-12-20T07:38:05;5.60;99.90
33699;DHT22;20032;52.436;13.312;2023-12-20T07:40:31;5.70;99.90
33699;DHT22;20032;52.436;13.312;2023-12-20T07:42:57;5.70;99.90
33699;DHT22;20032;52.436;13.312;2023-12-20T07:45:23;5.70;99.90
33699;DHT22;20032;52.436;13.312;2023-12-20T07:47:49;5.70;99.90
33699;DHT22;20032;52.436;13.312;2023-12-20T07:50:15;5.70;99.90
33699;DHT22;20032;52.436;13.312;2023-12-20T07:52:41;5.70;99.90
33699;DHT22;20032;52.436;13.312;2023-12-20T07:55:07;5.80;99.90
33699;DHT22;20032;52.436;13.312;2023-12-20T07:57:33;5.80;99.90
33699;DHT22;20032;52.436;13.312;2023-12-20T07:59:58;5.70;99.90
33699;DHT22;20032;52.436;13.312;2023-12-20T08:02:24;5.80;99.90
33699;DHT22;20032;52.436;13.312;2023-12-20T08:04:50;5.70;99.90
33699;DHT22;20032;52.436;13.312;2023-12-20T08:07:16;5.80;99.90
33699;DHT22;20032;52.436;13.312;2023-12-20T08:09:42;5.80;99.90
33699;DHT22;20032;52.436;13.312;2023-12-20T08:12:08;5.80;99.90
33699;DHT22;20032;52.436;13.312;2023-12-20T08:14:34;5.90;99.90
33699;DHT22;20032;52.436;13.312;2023-12-20T08:17:00;5.90;99.90
33699;DHT22;20032;52.436;13.312;2023-12-20T08:19:28;5.90;99.90
33699;DHT22;20032;52.436;13.312;2023-12-20T08:21:53;5.90;99.90
33699;DHT22;20032;52.436;13.312;2023-12-20T08:24:19;5.90;99.90
33699;DHT22;20032;52.436;13.312;2023-12-20T08:26:44;5.90;99.90
33699;DHT22;20032;52.436;13.312;2023-12-20T08:29:13;5.90;99.90
33699;DHT22;20032;52.436;13.312;2023-12-20T08:31:38;5.80;99.90
33699;DHT22;20032;52.436;13.312;2023-12-20T08:34:04;5.90;99.90
33699;DHT22;20032;52.436;13.312;2023-12-20T08:36:30;5.90;99.90
33699;DHT22;20032;52.436;13.312;2023-12-20T08:38:55;5.90;99.90
33699;DHT22;20032;52.436;13.312;2023-12-20T08:41:21;5.90;99.90
33699;DHT22;20032;52.436;13.312;2023-12-20T08:43:47;6.00;99.90
33699;DHT22;20032;52.436;13.312;2023-12-20T08:46:15;6.00;99.90
33699;DHT22;20032;52.436;13.312;2023-12-20T08:48:41;6.10;99.90
33699;DHT22;20032;52.436;13.312;2023-12-20T08:51:06;6.20;99.90
33699;DHT22;20032;52.436;13.312;2023-12-20T08:53:34;6.10;99.90
33699;DHT22;20032;52.436;13.312;2023-12-20T08:55:59;6.10;99.90
33699;DHT22;20032;52.436;13.312;2023-12-20T08:58:27;6.10;99.90
33699;DHT22;20032;52.436;13.312;2023-12-20T09:00:55;6.10;99.90
33699;DHT22;20032;52.436;13.312;2023-12-20T09:03:21;6.20;99.90
33699;DHT22;20032;52.436;13.312;2023-12-20T09:05:46;6.10;99.90
33699;DHT22;20032;52.436;13.312;2023-12-20T09:08:12;6.20;99.90
33699;DHT22;20032;52.436;13.312;2023-12-20T09:10:38;6.20;99.90
33699;DHT22;20032;52.436;13.312;2023-12-20T09:13:03;6.30;99.90
33699;DHT22;20032;52.436;13.312;2023-12-20T09:15:29;6.30;99.90
33699;DHT22;20032;52.436;13.312;2023-12-20T09:17:55;6.30;99.90
33699;DHT22;20032;52.436;13.312;2023-12-20T09:20:23;6.30;99.90
33699;DHT22;20032;52.436;13.312;2023-12-20T09:22:50;6.30;99.90
33699;DHT22;20032;52.436;13.312;2023-12-20T09:25:16;6.30;99.90
33699;DHT22;20032;52.436;13.312;2023-12-20T09:27:43;6.30;99.90
33699;DHT22;20032;52.436;13.312;2023-12-20T09:30:09;6.30;99.90
33699;DHT22;20032;52.436;13.312;2023-12-20T09:32:35;6.30;99.90
33699;DHT22;20032;52.436;13.312;2023-12-20T09:35:01;6.40;99.90
33699;DHT22;20032;52.436;13.312;2023-12-20T09:37:27;6.40;99.90
33699;DHT22;20032;52.436;13.312;2023-12-20T09:39:53;6.40;99.90
33699;DHT22;20032;52.436;13.312;2023-12-20T09:42:27;6.40;99.90
33699;DHT22;20032;52.436;13.312;2023-12-20T09:44:55;6.40;99.90
33699;DHT22;20032;52.436;13.312;2023-12-20T09:47:23;6.40;99.90
33699;DHT22;20032;52.436;13.312;2023-12-20T09:49:50;6.40;99.90
33699;DHT22;20032;52.436;13.312;2023-12-20T09:52:18;6.40;99.90
33699;DHT22;20032;52.436;13.312;2023-12-20T09:54:44;6.40;99.90
33699;DHT22;20032;52.436;13.312;2023-12-20T09:57:10;6.50;99.90
33699;DHT22;20032;52.436;13.312;2023-12-20T09:59:36;6.50;99.90
33699;DHT22;20032;52.436;13.312;2023-12-20T10:02:03;6.50;99.90
33699;DHT22;20032;52.436;13.312;2023-12-20T10:04:32;6.50;99.90
33699;DHT22;20032;52.436;13.312;2023-12-20T10:07:02;6.60;99.90
33699;DHT22;20032;52.436;13.312;2023-12-20T10:09:32;6.60;99.90
33699;DHT22;20032;52.436;13.312;2023-12-20T10:11:59;6.70;99.90
33699;DHT22;20032;52.436;13.312;2023-12-20T10:14:25;6.70;99.90
33699;DHT22;20032;52.436;13.312;2023-12-20T10:16:51;6.70;99.90
33699;DHT22;20032;52.436;13.312;2023-12-20T10:19:17;6.70;99.90
33699;DHT22;20032;52.436;13.312;2023-12-20T10:21:43;6.70;99.90
33699;DHT22;20032;52.436;13.312;2023-12-20T10:24:17;6.70;99.90
33699;DHT22;20032;52.436;13.312;2023-12-20T10:26:43;6.70;99.90
33699;DHT22;20032;52.436;13.312;2023-12-20T10:29:10;6.70;99.90
33699;DHT22;20032;52.436;13.312;2023-12-20T10:31:42;6.70;99.90
33699;DHT22;20032;52.436;13.312;2023-12-20T10:34:10;6.80;99.90
33699;DHT22;20032;52.436;13.312;2023-12-20T10:36:37;6.80;99.90
33699;DHT22;20032;52.436;13.312;2023-12-20T10:39:03;6.80;99.90
33699;DHT22;20032;52.436;13.312;2023-12-20T10:41:34;6.80;99.90
33699;DHT22;20032;52.436;13.312;2023-12-20T10:44:06;6.80;99.90
33699;DHT22;20032;52.436;13.312;2023-12-20T10:46:32;6.90;99.90
33699;DHT22;20032;52.436;13.312;2023-12-20T10:48:59;6.90;99.90
33699;DHT22;20032;52.436;13.312;2023-12-20T10:51:28;6.90;99.90
33699;DHT22;20032;52.436;13.312;2023-12-20T10:53:56;7.00;99.90
33699;DHT22;20032;52.436;13.312;2023-12-20T10:56:22;6.90;99.90
33699;DHT22;20032;52.436;13.312;2023-12-20T10:58:49;7.00;99.90
33699;DHT22;20032;52.436;13.312;2023-12-20T11:01:16;7.00;99.90
33699;DHT22;20032;52.436;13.312;2023-12-20T11:03:53;6.90;99.90
33699;DHT22;20032;52.436;13.312;2023-12-20T11:06:26;7.00;99.90
33699;DHT22;20032;52.436;13.312;2023-12-20T11:09:01;7.00;99.90
33699;DHT22;20032;52.436;13.312;2023-12-20T11:11:43;7.00;99.90
33699;DHT22;20032;52.436;13.312;2023-12-20T11:14:19;7.00;99.90
33699;DHT22;20032;52.436;13.312;2023-12-20T11:16:45;7.00;99.90
33699;DHT22;20032;52.436;13.312;2023-12-20T11:19:11;6.90;99.90
33699;DHT22;20032;52.436;13.312;2023-12-20T11:21:40;7.00;99.90
33699;DHT22;20032;52.436;13.312;2023-12-20T11:24:06;7.00;99.90
33699;DHT22;20032;52.436;13.312;2023-12-20T11:26:32;7.00;99.90
33699;DHT22;20032;52.436;13.312;2023-12-20T11:29:38;7.00;99.90
33699;DHT22;20032;52.436;13.312;2023-12-20T11:34:58;6.90;99.90
33699;DHT22;20032;52.436;13.312;2023-12-20T11:37:31;6.90;99.90
33699;DHT22;20032;52.436;13.312;2023-12-20T11:40:02;6.80;99.90
33699;DHT22;20032;52.436;13.312;2023-12-20T11:42:33;6.80;99.90
33699;DHT22;20032;52.436;13.312;2023-12-20T11:45:02;6.80;99.90
33699;DHT22;20032;52.436;13.312;2023-12-20T11:47:30;6.80;99.90
33699;DHT22;20032;52.436;13.312;2023-12-20T11:49:56;6.90;99.90
33699;DHT22;20032;52.436;13.312;2023-12-20T11:52:22;6.90;99.90
33699;DHT22;20032;52.436;13.312;2023-12-20T11:54:47;6.90;99.90
33699;DHT22;20032;52.436;13.312;2023-12-20T11:57:13;6.80;99.90
33699;DHT22;20032;52.436;13.312;2023-12-20T11:59:40;6.80;99.90
33699;DHT22;20032;52.436;13.312;2023-12-20T12:02:11;6.80;99.90
33699;DHT22;20032;52.436;13.312;2023-12-20T12:04:37;6.80;99.90
33699;DHT22;20032;52.436;13.312;2023-12-20T12:07:03;6.80;99.90
33699;DHT22;20032;52.436;13.312;2023-12-20T12:09:29;6.90;99.90
33699;DHT22;20032;52.436;13.312;2023-12-20T12:11:54;6.90;99.90
33699;DHT22;20032;52.436;13.312;2023-12-20T12:14:20;7.00;99.90
33699;DHT22;20032;52.436;13.312;2023-12-20T12:16:46;6.90;99.90
33699;DHT22;20032;52.436;13.312;2023-12-20T12:19:21;7.00;99.90
33699;DHT22;20032;52.436;13.312;2023-12-20T12:21:47;7.00;99.90
33699;DHT22;20032;52.436;13.312;2023-12-20T12:24:13;7.00;99.90
33699;DHT22;20032;52.436;13.312;2023-12-20T12:26:38;7.00;99.90
33699;DHT22;20032;52.436;13.312;2023-12-20T12:29:07;7.00;99.90
33699;DHT22;20032;52.436;13.312;2023-12-20T12:31:33;7.00;99.90
33699;DHT22;20032;52.436;13.312;2023-12-20T12:33:58;7.00;99.90
33699;DHT22;20032;52.436;13.312;2023-12-20T12:36:25;6.90;99.90
33699;DHT22;20032;52.436;13.312;2023-12-20T12:38:51;6.90;99.90
33699;DHT22;20032;52.436;13.312;2023-12-20T12:41:16;6.90;99.90
33699;DHT22;20032;52.436;13.312;2023-12-20T12:43:42;6.80;99.90
33699;DHT22;20032;52.436;13.312;2023-12-20T12:46:08;6.70;99.90
33699;DHT22;20032;52.436;13.312;2023-12-20T12:48:34;6.70;99.90
33699;DHT22;20032;52.436;13.312;2023-12-20T12:51:00;6.70;99.90
33699;DHT22;20032;52.436;13.312;2023-12-20T12:53:26;6.70;99.90
33699;DHT22;20032;52.436;13.312;2023-12-20T12:55:53;6.60;99.90
33699;DHT22;20032;52.436;13.312;2023-12-20T12:58:20;6.70;99.90
33699;DHT22;20032;52.436;13.312;2023-12-20T13:00:45;6.60;99.90
33699;DHT22;20032;52.436;13.312;2023-12-20T13:03:11;6.50;99.90
33699;DHT22;20032;52.436;13.312;2023-12-20T13:05:36;6.50;99.90
33699;DHT22;20032;52.436;13.312;2023-12-20T13:08:03;6.60;99.90
33699;DHT22;20032;52.436;13.312;2023-12-20T13:10:28;6.50;99.90
33699;DHT22;20032;52.436;13.312;2023-12-20T13:12:54;6.50;99.90
33699;DHT22;20032;52.436;13.312;2023-12-20T13:15:20;6.50;99.90
33699;DHT22;20032;52.436;13.312;2023-12-20T13:17:45;6.50;99.90
33699;DHT22;20032;52.436;13.312;2023-12-20T13:20:11;6.50;99.90
33699;DHT22;20032;52.436;13.312;2023-12-20T13:22:37;6.40;99.90
33699;DHT22;20032;52.436;13.312;2023-12-20T13:25:02;6.40;99.90
33699;DHT22;20032;52.436;13.312;2023-12-20T13:27:28;6.40;99.90
33699;DHT22;20032;52.436;13.312;2023-12-20T13:29:54;6.40;99.90
33699;DHT22;20032;52.436;13.312;2023-12-20T13:32:19;6.40;99.90
33699;DHT22;20032;52.436;13.312;2023-12-20T13:34:45;6.30;99.90
33699;DHT22;20032;52.436;13.312;2023-12-20T13:37:11;6.30;99.90
33699;DHT22;20032;52.436;13.312;2023-12-20T13:39:36;6.20;99.90
33699;DHT22;20032;52.436;13.312;2023-12-20T13:42:02;6.10;99.90
33699;DHT22;20032;52.436;13.312;2023-12-20T13:44:27;6.00;99.90
33699;DHT22;20032;52.436;13.312;2023-12-20T13:46:53;6.00;99.90
33699;DHT22;20032;52.436;13.312;2023-12-20T13:49:18;6.00;99.90
33699;DHT22;20032;52.436;13.312;2023-12-20T13:51:44;5.90;99.90
33699;DHT22;20032;52.436;13.312;2023-12-20T13:54:09;5.90;99.90
33699;DHT22;20032;52.436;13.312;2023-12-20T13:56:36;5.90;99.90
33699;DHT22;20032;52.436;13.312;2023-12-20T13:59:01;5.80;99.90
33699;DHT22;20032;52.436;13.312;2023-12-20T14:01:27;5.80;99.90
33699;DHT22;20032;52.436;13.312;2023-12-20T14:03:52;5.80;99.90
33699;DHT22;20032;52.436;13.312;2023-12-20T14:06:18;5.70;99.90
33699;DHT22;20032;52.436;13.312;2023-12-20T14:08:43;5.60;99.90
33699;DHT22;20032;52.436;13.312;2023-12-20T14:11:09;5.60;99.90
33699;DHT22;20032;52.436;13.312;2023-12-20T14:13:35;5.50;99.90
33699;DHT22;20032;52.436;13.312;2023-12-20T14:16:00;5.50;99.90
33699;DHT22;20032;52.436;13.312;2023-12-20T14:18:27;5.50;99.90
33699;DHT22;20032;52.436;13.312;2023-12-20T14:20:53;5.40;99.90
33699;DHT22;20032;52.436;13.312;2023-12-20T14:23:19;5.40;99.90
33699;DHT22;20032;52.436;13.312;2023-12-20T14:25:44;5.40;99.90
33699;DHT22;20032;52.436;13.312;2023-12-20T14:28:10;5.40;99.90
33699;DHT22;20032;52.436;13.312;2023-12-20T14:30:38;5.40;99.90
33699;DHT22;20032;52.436;13.312;2023-12-20T14:33:04;5.40;99.90
33699;DHT22;20032;52.436;13.312;2023-12-20T14:35:30;5.40;99.90
33699;DHT22;20032;52.436;13.312;2023-12-20T14:37:55;5.30;99.90
33699;DHT22;20032;52.436;13.312;2023-12-20T14:40:21;5.30;99.90
33699;DHT22;20032;52.436;13.312;2023-12-20T14:42:46;5.30;99.90
33699;DHT22;20032;52.436;13.312;2023-12-20T14:45:12;5.30;99.90
33699;DHT22;20032;52.436;13.312;2023-12-20T14:47:39;5.40;99.90
33699;DHT22;20032;52.436;13.312;2023-12-20T14:50:05;5.40;99.90
33699;DHT22;20032;52.436;13.312;2023-12-20T14:52:33;5.40;99.90
33699;DHT22;20032;52.436;13.312;2023-12-20T14:55:00;5.50;99.90
33699;DHT22;20032;52.436;13.312;2023-12-20T14:57:28;5.50;99.90
33699;DHT22;20032;52.436;13.312;2023-12-20T14:59:55;5.50;99.90
33699;DHT22;20032;52.436;13.312;2023-12-20T15:02:20;5.50;99.90
33699;DHT22;20032;52.436;13.312;2023-12-20T15:04:46;5.50;99.90
33699;DHT22;20032;52.436;13.312;2023-12-20T15:07:11;5.50;99.90
33699;DHT22;20032;52.436;13.312;2023-12-20T15:09:37;5.50;99.90
33699;DHT22;20032;52.436;13.312;2023-12-20T15:12:03;5.50;99.90
33699;DHT22;20032;52.436;13.312;2023-12-20T15:14:29;5.50;99.90
33699;DHT22;20032;52.436;13.312;2023-12-20T15:16:55;5.60;99.90
33699;DHT22;20032;52.436;13.312;2023-12-20T15:19:21;5.60;99.90
33699;DHT22;20032;52.436;13.312;2023-12-20T15:21:47;5.60;99.90
33699;DHT22;20032;52.436;13.312;2023-12-20T15:24:12;5.60;99.90
33699;DHT22;20032;52.436;13.312;2023-12-20T15:26:43;5.50;99.90